Time;durP1;ratioP1;P1;durP2;ratioP2;P2;SDS_P1;SDS_P2;PMS_P1;PMS_P2;Temp;Humidity;BMP_temperature;BMP_pressure;BME280_temperature;BME280_humidity;BME280_pressure;Samples;Min_cycle;Max_cycle;Signal;HPM_P1;HPM_P2
2023/01/22 00:01:55;;;;;;;5.50;2.60;;;2.80;99.90;;;;;;5042667;28;20694;-74
2023/01/22 00:04:21;;;;;;;8.37;4.43;;;2.70;99.90;;;;;;5043542;28;20208;-74
2023/01/22 00:06:46;;;;;;;4.53;2.93;;;2.70;99.90;;;;;;5039860;28;20215;-75
2023/01/22 00:09:14;;;;;;;5.10;3.13;;;2.80;99.90;;;;;;5042067;28;20172;-74
2023/01/22 00:11:40;;;;;;;5.07;3.37;;;2.80;99.90;;;;;;5046733;28;20177;-74
2023/01/22 00:14:06;;;;;;;5.97;3.17;;;2.80;99.90;;;;;;5044857;28;20644;-74
2023/01/22 00:16:31;;;;;;;7.10;3.40;;;2.70;99.90;;;;;;5043650;28;20291;-74
2023/01/22 00:18:57;;;;;;;6.90;3.27;;;2.70;99.90;;;;;;5031605;28;20261;-74
2023/01/22 00:21:23;;;;;;;5.37;3.70;;;2.70;99.90;;;;;;5044848;28;20205;-74
2023/01/22 00:23:49;;;;;;;5.20;3.03;;;2.70;99.90;;;;;;5041049;28;20666;-72
2023/01/22 00:26:16;;;;;;;4.83;3.40;;;2.70;99.90;;;;;;5045444;28;20265;-74
2023/01/22 00:28:46;;;;;;;4.43;3.03;;;2.70;99.90;;;;;;5042008;28;20200;-74
2023/01/22 00:31:13;;;;;;;6.40;3.17;;;2.70;99.90;;;;;;5047613;28;20202;-73
2023/01/22 00:33:39;;;;;;;9.30;3.40;;;2.70;99.90;;;;;;5049308;28;20207;-74
2023/01/22 00:36:07;;;;;;;7.47;3.57;;;2.70;99.90;;;;;;5040700;28;20201;-73
2023/01/22 00:38:33;;;;;;;7.13;3.53;;;2.70;99.90;;;;;;5048231;28;20630;-73
2023/01/22 00:41:01;;;;;;;5.80;3.23;;;2.70;99.90;;;;;;5041197;28;20577;-74
2023/01/22 00:43:27;;;;;;;9.40;3.90;;;2.70;99.90;;;;;;5040681;28;20207;-74
2023/01/22 00:45:52;;;;;;;5.67;3.27;;;2.60;99.90;;;;;;5045908;28;20199;-73
2023/01/22 00:48:18;;;;;;;5.47;3.13;;;2.60;99.90;;;;;;5046463;28;20292;-74
2023/01/22 00:50:43;;;;;;;8.57;3.87;;;2.60;99.90;;;;;;5040515;28;20655;-74
2023/01/22 00:53:09;;;;;;;9.07;3.40;;;2.60;99.90;;;;;;5043736;28;20204;-75
2023/01/22 00:55:35;;;;;;;4.70;3.23;;;2.60;99.90;;;;;;5059468;28;20227;-73
2023/01/22 00:58:00;;;;;;;6.17;3.67;;;2.60;99.90;;;;;;5048009;28;20223;-74
2023/01/22 01:00:26;;;;;;;5.80;3.13;;;2.60;99.90;;;;;;5042782;28;20208;-75
2023/01/22 01:05:35;;;;;;;6.10;3.57;;;2.60;99.90;;;;;;5041686;28;20739;-74
2023/01/22 01:08:01;;;;;;;7.40;3.63;;;2.70;99.90;;;;;;5045510;28;20302;-74
2023/01/22 01:10:27;;;;;;;5.53;3.50;;;2.60;99.90;;;;;;5039993;28;20690;-75
2023/01/22 01:12:52;;;;;;;6.07;3.83;;;2.60;99.90;;;;;;5040328;28;20753;-75
2023/01/22 01:15:18;;;;;;;8.20;4.07;;;2.60;99.90;;;;;;5041010;28;20698;-71
2023/01/22 01:17:45;;;;;;;7.70;3.90;;;2.70;99.90;;;;;;5040050;28;20207;-75
2023/01/22 01:20:11;;;;;;;7.47;3.50;;;2.70;99.90;;;;;;5041735;28;20267;-74
2023/01/22 01:22:37;;;;;;;9.33;4.00;;;2.60;99.90;;;;;;5046642;28;20255;-75
2023/01/22 01:25:03;;;;;;;8.10;3.67;;;2.60;99.90;;;;;;5044286;28;20223;-74
2023/01/22 01:27:30;;;;;;;8.40;4.10;;;2.60;99.90;;;;;;5039194;28;20698;-75
2023/01/22 01:29:57;;;;;;;8.53;3.93;;;2.60;99.90;;;;;;5040043;28;20642;-75
2023/01/22 01:32:22;;;;;;;6.17;3.67;;;2.60;99.90;;;;;;5046049;28;20715;-72
2023/01/22 01:34:48;;;;;;;8.97;4.43;;;2.60;99.90;;;;;;5042757;28;20240;-74
2023/01/22 01:37:15;;;;;;;6.33;3.40;;;2.60;99.90;;;;;;5048992;28;20602;-75
2023/01/22 01:39:40;;;;;;;5.47;3.67;;;2.50;99.90;;;;;;5059871;28;20214;-75
2023/01/22 01:42:06;;;;;;;8.70;4.23;;;2.60;99.90;;;;;;5037560;28;20184;-75
2023/01/22 01:44:32;;;;;;;6.57;3.40;;;2.50;99.90;;;;;;5045670;28;20627;-75
2023/01/22 01:47:07;;;;;;;5.50;3.83;;;2.50;99.90;;;;;;5044559;28;20337;-75
2023/01/22 01:49:40;;;;;;;6.27;4.37;;;2.50;99.90;;;;;;5040799;28;20210;-74
2023/01/22 01:52:10;;;;;;;6.70;3.87;;;2.50;99.90;;;;;;5046489;28;20626;-73
2023/01/22 01:54:38;;;;;;;7.57;3.53;;;2.50;99.90;;;;;;5042395;28;20196;-76
2023/01/22 01:57:11;;;;;;;4.73;3.60;;;2.60;99.90;;;;;;5043015;28;20685;-74
2023/01/22 01:59:38;;;;;;;5.83;3.53;;;2.60;99.90;;;;;;5058533;28;20168;-75
2023/01/22 02:02:03;;;;;;;4.33;3.33;;;2.50;99.90;;;;;;5041355;28;20200;-73
2023/01/22 02:04:29;;;;;;;6.57;3.27;;;2.50;99.90;;;;;;5043104;28;20554;-74
2023/01/22 02:06:55;;;;;;;5.87;3.30;;;2.60;99.90;;;;;;5044086;28;20253;-74
2023/01/22 02:09:20;;;;;;;6.80;3.30;;;2.50;99.90;;;;;;5040270;28;20705;-74
2023/01/22 02:11:48;;;;;;;4.80;3.00;;;2.50;99.90;;;;;;5048577;28;20243;-74
2023/01/22 02:14:22;;;;;;;5.17;2.90;;;2.50;99.90;;;;;;5045221;28;20200;-74
2023/01/22 02:16:47;;;;;;;4.67;3.20;;;2.50;99.90;;;;;;5039532;28;20223;-72
2023/01/22 02:19:13;;;;;;;3.10;2.80;;;2.50;99.90;;;;;;5046534;28;20215;-74
2023/01/22 02:21:43;;;;;;;5.00;3.63;;;2.50;99.90;;;;;;5048239;28;20256;-74
2023/01/22 02:24:10;;;;;;;5.50;3.57;;;2.50;99.90;;;;;;5042225;28;20172;-74
2023/01/22 02:26:37;;;;;;;4.87;3.57;;;2.50;99.90;;;;;;5050404;28;20175;-74
2023/01/22 02:29:06;;;;;;;4.13;3.17;;;2.50;99.90;;;;;;5042968;28;20346;-74
2023/01/22 02:31:33;;;;;;;5.97;3.53;;;2.50;99.90;;;;;;5044933;28;20294;-72
2023/01/22 02:34:00;;;;;;;4.37;3.40;;;2.50;99.90;;;;;;5046787;28;20204;-74
2023/01/22 02:36:27;;;;;;;7.33;3.77;;;2.60;99.90;;;;;;5043257;28;20231;-73
2023/01/22 02:38:53;;;;;;;5.57;3.23;;;2.60;99.90;;;;;;5049124;28;20182;-74
2023/01/22 02:41:18;;;;;;;6.27;3.60;;;2.60;99.90;;;;;;5046430;28;20216;-75
2023/01/22 02:43:44;;;;;;;6.63;3.30;;;2.60;99.90;;;;;;5044401;28;20705;-75
2023/01/22 02:46:09;;;;;;;7.07;3.37;;;2.60;99.90;;;;;;5047001;28;20233;-74
2023/01/22 02:48:35;;;;;;;4.93;3.33;;;2.60;99.90;;;;;;5040436;28;20236;-74
2023/01/22 02:51:01;;;;;;;5.63;3.33;;;2.70;99.90;;;;;;5042268;28;20176;-74
2023/01/22 02:53:26;;;;;;;6.17;3.03;;;2.60;99.90;;;;;;5046267;28;20173;-74
2023/01/22 02:55:52;;;;;;;6.00;2.90;;;2.60;99.90;;;;;;5044887;28;20211;-74
2023/01/22 02:58:18;;;;;;;4.60;2.87;;;2.60;99.90;;;;;;5050253;28;20212;-75
2023/01/22 03:00:43;;;;;;;3.33;2.90;;;2.60;99.90;;;;;;5047296;28;20211;-74
2023/01/22 03:03:14;;;;;;;3.60;2.80;;;2.60;99.90;;;;;;5040402;28;20180;-75
2023/01/22 03:05:50;;;;;;;3.60;2.53;;;2.60;99.90;;;;;;5048287;28;20521;-75
2023/01/22 03:08:17;;;;;;;3.00;2.70;;;2.60;99.90;;;;;;5027620;28;20216;-75
2023/01/22 03:10:43;;;;;;;2.50;2.10;;;2.60;99.90;;;;;;5040552;28;20212;-75
2023/01/22 03:21:22;;;;;;;4.43;2.87;;;2.50;99.90;;;;;;5039063;28;20222;-75
2023/01/22 03:23:53;;;;;;;9.00;4.07;;;2.60;99.90;;;;;;5039382;28;20173;-74
2023/01/22 03:26:20;;;;;;;4.40;2.33;;;2.50;99.90;;;;;;5041151;28;20250;-74
2023/01/22 03:28:46;;;;;;;3.30;2.60;;;2.50;99.90;;;;;;5043946;28;20709;-74
2023/01/22 03:31:13;;;;;;;4.53;2.40;;;2.40;99.90;;;;;;5040208;28;20270;-74
2023/01/22 03:33:39;;;;;;;3.27;2.97;;;2.40;99.90;;;;;;5040517;28;20222;-74
2023/01/22 03:36:08;;;;;;;3.90;2.90;;;2.40;99.90;;;;;;5041151;28;20670;-74
2023/01/22 03:38:34;;;;;;;3.47;2.57;;;2.40;99.90;;;;;;5038505;28;20694;-74
2023/01/22 03:41:05;;;;;;;4.23;2.90;;;2.40;99.90;;;;;;5044622;28;20318;-74
2023/01/22 03:43:31;;;;;;;3.37;2.33;;;2.40;99.90;;;;;;5044288;28;20204;-74
2023/01/22 03:46:08;;;;;;;4.37;3.13;;;2.40;99.90;;;;;;5044958;28;20211;-74
2023/01/22 03:48:34;;;;;;;4.20;2.87;;;2.40;99.90;;;;;;5041953;28;20208;-74
2023/01/22 03:51:04;;;;;;;2.97;2.67;;;2.40;99.90;;;;;;5038923;28;20175;-73
2023/01/22 03:53:30;;;;;;;4.07;2.80;;;2.40;99.90;;;;;;5039910;28;20177;-74
2023/01/22 03:55:57;;;;;;;3.00;2.43;;;2.50;99.90;;;;;;5038315;28;20402;-74
2023/01/22 03:58:23;;;;;;;3.43;2.50;;;2.40;99.90;;;;;;5039157;28;20212;-73
2023/01/22 04:00:49;;;;;;;3.33;2.80;;;2.40;99.90;;;;;;5041821;28;20202;-71
2023/01/22 04:03:14;;;;;;;2.83;2.47;;;2.40;99.90;;;;;;5039667;28;20291;-72
2023/01/22 04:05:40;;;;;;;2.77;2.33;;;2.40;99.90;;;;;;5040969;28;20259;-74
2023/01/22 04:08:06;;;;;;;3.80;3.10;;;2.40;99.90;;;;;;5042591;28;20553;-73
2023/01/22 04:10:31;;;;;;;4.07;3.07;;;2.30;99.90;;;;;;5040089;28;20837;-74
2023/01/22 04:12:57;;;;;;;4.63;3.10;;;2.30;99.90;;;;;;5041648;28;20686;-73
2023/01/22 04:15:22;;;;;;;4.97;3.57;;;2.30;99.90;;;;;;5039537;28;20299;-74
2023/01/22 04:17:48;;;;;;;3.50;3.10;;;2.40;99.90;;;;;;5040448;28;20200;-73
2023/01/22 04:20:14;;;;;;;6.10;3.47;;;2.40;99.90;;;;;;5039935;28;20689;-72
2023/01/22 04:22:39;;;;;;;4.40;3.30;;;2.40;99.90;;;;;;5039817;28;20761;-73
2023/01/22 04:25:06;;;;;;;4.50;3.43;;;2.40;99.90;;;;;;5038442;28;20206;-74
2023/01/22 04:27:36;;;;;;;4.40;3.33;;;2.40;99.90;;;;;;5038160;28;20216;-74
2023/01/22 04:30:05;;;;;;;4.53;3.23;;;2.40;99.90;;;;;;5039829;28;20821;-74
2023/01/22 04:32:31;;;;;;;4.20;2.93;;;2.40;99.90;;;;;;5038466;28;20185;-72
2023/01/22 04:34:56;;;;;;;3.87;3.10;;;2.30;99.90;;;;;;5039836;28;20207;-74
2023/01/22 04:37:22;;;;;;;4.00;3.47;;;2.40;99.90;;;;;;5037559;28;20270;-74
2023/01/22 04:39:47;;;;;;;5.00;3.13;;;2.40;99.90;;;;;;5041566;28;20208;-74
2023/01/22 04:42:13;;;;;;;4.40;3.07;;;2.50;99.90;;;;;;5039634;28;20181;-71
2023/01/22 04:44:39;;;;;;;4.23;3.37;;;2.40;99.90;;;;;;5039560;28;20182;-72
2023/01/22 04:47:04;;;;;;;3.60;3.30;;;2.40;99.90;;;;;;5043411;28;20217;-72
2023/01/22 04:49:30;;;;;;;3.97;2.70;;;2.40;99.90;;;;;;5037245;28;20211;-74
2023/01/22 04:51:56;;;;;;;4.97;3.60;;;2.40;99.90;;;;;;5039971;28;20225;-72
2023/01/22 04:54:21;;;;;;;4.80;3.67;;;2.40;99.90;;;;;;5037671;28;20223;-74
2023/01/22 04:56:47;;;;;;;6.40;4.00;;;2.40;99.90;;;;;;5035348;28;20204;-73
2023/01/22 04:59:12;;;;;;;4.00;3.33;;;2.40;99.90;;;;;;5040183;28;20577;-74
2023/01/22 05:01:38;;;;;;;3.70;3.03;;;2.40;99.90;;;;;;5040354;28;20258;-71
2023/01/22 05:04:04;;;;;;;4.87;4.00;;;2.40;99.90;;;;;;5038369;28;20290;-74
2023/01/22 05:06:30;;;;;;;4.83;3.60;;;2.40;99.90;;;;;;5040116;28;20212;-73
2023/01/22 05:08:56;;;;;;;5.23;3.67;;;2.40;99.90;;;;;;5036333;28;20529;-73
2023/01/22 05:11:21;;;;;;;7.83;4.83;;;2.40;99.90;;;;;;5037085;28;20191;-74
2023/01/22 05:13:48;;;;;;;4.83;3.87;;;2.40;99.90;;;;;;5039453;28;20222;-74
2023/01/22 05:16:13;;;;;;;5.13;3.73;;;2.30;99.90;;;;;;5038689;28;20759;-73
2023/01/22 05:18:39;;;;;;;5.90;3.80;;;2.40;99.90;;;;;;5037267;28;20308;-73
2023/01/22 05:21:05;;;;;;;4.10;3.43;;;2.40;99.90;;;;;;5041204;28;20176;-72
2023/01/22 05:23:30;;;;;;;5.97;3.83;;;2.30;99.90;;;;;;5038663;28;20184;-72
2023/01/22 05:25:56;;;;;;;5.83;4.20;;;2.30;99.90;;;;;;5039237;28;20685;-74
2023/01/22 05:28:22;;;;;;;6.60;4.53;;;2.30;99.90;;;;;;5041558;28;20219;-74
2023/01/22 05:30:48;;;;;;;6.20;4.50;;;2.40;99.90;;;;;;5044376;28;20213;-74
2023/01/22 05:33:13;;;;;;;5.10;4.60;;;2.30;99.90;;;;;;5045445;28;20182;-72
2023/01/22 05:35:39;;;;;;;5.07;4.33;;;2.40;99.90;;;;;;5043158;28;20199;-74
2023/01/22 05:38:05;;;;;;;6.00;4.13;;;2.40;99.90;;;;;;5045386;28;20365;-75
2023/01/22 05:40:30;;;;;;;5.43;4.30;;;2.30;99.90;;;;;;5043836;28;20303;-74
2023/01/22 05:42:56;;;;;;;4.90;4.00;;;2.30;99.90;;;;;;5040554;28;20209;-74
2023/01/22 05:45:22;;;;;;;7.00;4.40;;;2.30;99.90;;;;;;5045973;28;20235;-73
2023/01/22 05:47:52;;;;;;;7.73;4.97;;;2.30;99.90;;;;;;5045717;28;20223;-73
2023/01/22 05:50:18;;;;;;;5.33;4.20;;;2.30;99.90;;;;;;5042656;28;20294;-73
2023/01/22 05:52:43;;;;;;;5.20;4.43;;;2.40;99.90;;;;;;5046492;28;20310;-74
2023/01/22 05:55:09;;;;;;;5.57;4.13;;;2.40;99.90;;;;;;5040607;28;20300;-74
2023/01/22 05:57:35;;;;;;;7.77;4.27;;;2.30;99.90;;;;;;5042312;28;20219;-72
2023/01/22 06:00:02;;;;;;;6.63;5.20;;;2.30;99.90;;;;;;5061847;28;20199;-74
2023/01/22 06:02:28;;;;;;;5.77;4.33;;;2.30;99.90;;;;;;5039763;28;20538;-73
2023/01/22 06:04:54;;;;;;;7.17;4.57;;;2.30;99.90;;;;;;5044851;28;20269;-74
2023/01/22 06:07:19;;;;;;;5.77;4.20;;;2.30;99.90;;;;;;5043240;28;20297;-73
2023/01/22 06:09:45;;;;;;;7.37;4.90;;;2.30;99.90;;;;;;5041337;28;20230;-73
2023/01/22 06:12:10;;;;;;;8.13;4.57;;;2.20;99.90;;;;;;5047342;28;20176;-74
2023/01/22 06:14:36;;;;;;;7.30;4.93;;;2.20;99.90;;;;;;5041974;28;20795;-74
2023/01/22 06:17:02;;;;;;;6.03;4.43;;;2.20;99.90;;;;;;5040784;28;20218;-74
2023/01/22 06:19:27;;;;;;;7.13;5.03;;;2.20;99.90;;;;;;5046691;28;20216;-73
2023/01/22 06:21:54;;;;;;;8.00;5.50;;;2.20;99.90;;;;;;5043387;28;20203;-73
2023/01/22 06:24:20;;;;;;;6.63;5.00;;;2.20;99.90;;;;;;5038972;28;20240;-73
2023/01/22 06:26:45;;;;;;;5.73;4.70;;;2.20;99.90;;;;;;5046772;28;20226;-73
2023/01/22 06:29:11;;;;;;;6.70;5.27;;;2.20;99.90;;;;;;5039628;28;20773;-73
2023/01/22 06:31:36;;;;;;;6.13;4.73;;;2.30;99.90;;;;;;5044915;28;20222;-71
2023/01/22 06:34:04;;;;;;;7.73;4.60;;;2.20;99.90;;;;;;5044728;28;20211;-74
2023/01/22 06:36:29;;;;;;;8.53;5.40;;;2.20;99.90;;;;;;5045763;28;20600;-74
2023/01/22 06:38:55;;;;;;;6.93;5.27;;;2.20;99.90;;;;;;5047237;28;20180;-73
2023/01/22 06:41:21;;;;;;;7.17;4.97;;;2.20;99.90;;;;;;5042314;28;20261;-73
2023/01/22 06:43:47;;;;;;;7.40;4.83;;;2.30;99.90;;;;;;5044418;28;20290;-73
2023/01/22 06:46:13;;;;;;;35.17;21.67;;;2.20;99.90;;;;;;5045585;28;20345;-74
2023/01/22 06:48:38;;;;;;;9.87;7.10;;;2.20;99.90;;;;;;5040270;28;20218;-74
2023/01/22 06:51:04;;;;;;;6.93;5.83;;;2.30;99.90;;;;;;5043607;28;20178;-74
2023/01/22 06:53:30;;;;;;;8.13;5.50;;;2.30;99.90;;;;;;5044199;28;20191;-73
2023/01/22 06:55:58;;;;;;;6.70;5.50;;;2.30;99.90;;;;;;5043266;28;20266;-74
2023/01/22 06:58:24;;;;;;;7.00;5.30;;;2.30;99.90;;;;;;5045148;28;20214;-71
2023/01/22 07:00:49;;;;;;;6.47;4.97;;;2.30;99.90;;;;;;5048712;28;20459;-73
2023/01/22 07:03:15;;;;;;;7.73;4.90;;;2.30;99.90;;;;;;5046401;28;20208;-73
2023/01/22 07:05:41;;;;;;;7.60;5.50;;;2.30;99.90;;;;;;5049556;28;20198;-74
2023/01/22 07:08:07;;;;;;;7.23;5.10;;;2.30;99.90;;;;;;5050538;28;20211;-73
2023/01/22 07:10:33;;;;;;;7.27;5.53;;;2.30;99.90;;;;;;5048250;28;20582;-73
2023/01/22 07:12:58;;;;;;;8.80;5.57;;;2.30;99.90;;;;;;5049465;28;20237;-74
2023/01/22 07:15:24;;;;;;;7.87;5.30;;;2.30;99.90;;;;;;5043414;28;20350;-72
2023/01/22 07:17:53;;;;;;;6.67;5.23;;;2.30;99.90;;;;;;5042943;28;20195;-74
2023/01/22 07:20:22;;;;;;;6.90;4.97;;;2.20;99.90;;;;;;5047584;28;20287;-74
2023/01/22 07:22:47;;;;;;;8.60;5.47;;;2.20;99.90;;;;;;5043790;28;20206;-73
2023/01/22 07:25:13;;;;;;;8.03;5.37;;;2.20;99.90;;;;;;5047781;28;20205;-75
2023/01/22 07:27:39;;;;;;;7.10;4.97;;;2.30;99.90;;;;;;5045810;28;20217;-75
2023/01/22 07:30:05;;;;;;;7.40;5.23;;;2.20;99.90;;;;;;5044211;28;20255;-74
2023/01/22 07:32:31;;;;;;;7.73;5.40;;;2.20;99.90;;;;;;5048736;28;20705;-74
2023/01/22 07:34:57;;;;;;;6.33;5.10;;;2.20;99.90;;;;;;5046529;28;20346;-74
2023/01/22 07:37:22;;;;;;;6.93;5.17;;;2.20;99.90;;;;;;5044231;28;20225;-74
2023/01/22 07:39:48;;;;;;;8.43;5.87;;;2.30;99.90;;;;;;5048325;28;20204;-74
2023/01/22 07:42:13;;;;;;;7.77;5.47;;;2.30;99.90;;;;;;5042775;28;20293;-74
2023/01/22 07:44:39;;;;;;;7.67;5.50;;;2.30;99.90;;;;;;5046877;28;20702;-72
2023/01/22 07:47:05;;;;;;;7.83;5.80;;;2.20;99.90;;;;;;5062646;28;20253;-75
2023/01/22 07:49:31;;;;;;;7.90;5.50;;;2.20;99.90;;;;;;5047765;28;20208;-75
2023/01/22 07:51:57;;;;;;;7.30;5.47;;;2.30;99.90;;;;;;5047277;28;20574;-75
2023/01/22 07:54:22;;;;;;;8.27;6.00;;;2.30;99.90;;;;;;5042617;28;20264;-74
2023/01/22 07:56:48;;;;;;;9.17;6.07;;;2.40;99.90;;;;;;5044596;28;20701;-74
2023/01/22 07:59:14;;;;;;;7.70;5.43;;;2.40;99.90;;;;;;5047638;28;20207;-74
2023/01/22 08:01:39;;;;;;;8.13;6.03;;;2.40;99.90;;;;;;5043941;28;20290;-74
2023/01/22 08:04:06;;;;;;;7.50;5.00;;;2.40;99.90;;;;;;5043677;28;20198;-74
2023/01/22 08:06:32;;;;;;;6.37;4.97;;;2.40;99.90;;;;;;5046257;28;20295;-73
2023/01/22 08:08:58;;;;;;;8.90;5.57;;;2.40;99.90;;;;;;5060655;28;20244;-74
2023/01/22 08:11:25;;;;;;;7.00;5.60;;;2.40;99.90;;;;;;5049333;28;20638;-74
2023/01/22 08:13:50;;;;;;;8.00;5.33;;;2.50;99.90;;;;;;5050094;28;20599;-74
2023/01/22 08:16:16;;;;;;;7.47;5.30;;;2.40;99.90;;;;;;5045723;28;20223;-74
2023/01/22 08:18:42;;;;;;;9.07;5.67;;;2.50;99.90;;;;;;5047639;28;20216;-74
2023/01/22 08:21:07;;;;;;;9.70;5.63;;;2.50;99.90;;;;;;5044709;28;20227;-74
2023/01/22 08:23:33;;;;;;;7.47;5.33;;;2.40;99.90;;;;;;5043405;28;20176;-74
2023/01/22 08:25:59;;;;;;;8.13;5.20;;;2.50;99.90;;;;;;5044773;28;20207;-74
2023/01/22 08:28:26;;;;;;;7.90;5.40;;;2.50;99.90;;;;;;5042894;28;20257;-74
2023/01/22 08:30:55;;;;;;;8.17;5.40;;;2.50;99.90;;;;;;5046469;28;20217;-75
2023/01/22 08:33:21;;;;;;;8.57;5.37;;;2.40;99.90;;;;;;5046282;28;20254;-74
2023/01/22 08:35:47;;;;;;;7.40;4.97;;;2.50;99.90;;;;;;5047281;28;20233;-73
2023/01/22 08:38:12;;;;;;;7.07;5.10;;;2.50;99.90;;;;;;5046067;28;20623;-73
2023/01/22 08:40:38;;;;;;;7.53;5.77;;;2.50;99.90;;;;;;5043171;28;20207;-73
2023/01/22 08:43:04;;;;;;;8.33;5.77;;;2.50;99.90;;;;;;5043776;28;20210;-74
2023/01/22 08:45:29;;;;;;;9.50;6.33;;;2.50;99.90;;;;;;5046146;28;20218;-72
2023/01/22 08:47:57;;;;;;;8.90;6.00;;;2.50;99.90;;;;;;5045375;28;20200;-72
2023/01/22 08:50:23;;;;;;;9.93;5.57;;;2.50;99.90;;;;;;5042985;28;20185;-75
2023/01/22 08:52:48;;;;;;;9.40;5.80;;;2.60;99.90;;;;;;5045125;28;20208;-73
2023/01/22 08:55:14;;;;;;;8.33;6.17;;;2.50;99.90;;;;;;5041800;28;20207;-75
2023/01/22 08:57:40;;;;;;;9.70;5.60;;;2.50;99.90;;;;;;5043780;28;20761;-74
2023/01/22 09:00:07;;;;;;;8.37;5.20;;;2.50;99.90;;;;;;5047439;28;20198;-73
2023/01/22 09:02:32;;;;;;;9.23;5.90;;;2.50;99.90;;;;;;5040868;28;20263;-74
2023/01/22 09:04:58;;;;;;;7.83;5.53;;;2.40;99.90;;;;;;5063709;28;20304;-75
2023/01/22 09:07:24;;;;;;;6.10;4.87;;;2.50;99.90;;;;;;5044395;28;20211;-74
2023/01/22 09:09:49;;;;;;;7.77;5.90;;;2.50;99.90;;;;;;5042301;28;20265;-72
2023/01/22 09:12:15;;;;;;;6.90;5.57;;;2.50;99.90;;;;;;5048661;28;20209;-74
2023/01/22 09:14:41;;;;;;;9.43;6.87;;;2.40;99.90;;;;;;5026025;28;20214;-74
2023/01/22 09:17:06;;;;;;;9.57;6.37;;;2.40;99.90;;;;;;5042777;28;20210;-74
2023/01/22 09:19:32;;;;;;;11.77;6.73;;;2.40;99.90;;;;;;5043961;28;20205;-72
2023/01/22 09:21:57;;;;;;;9.90;5.97;;;2.40;99.90;;;;;;5059172;28;20209;-74
2023/01/22 09:24:23;;;;;;;9.30;5.83;;;2.50;99.90;;;;;;5041789;28;20218;-75
2023/01/22 09:26:49;;;;;;;10.50;6.40;;;2.50;99.90;;;;;;5045018;28;20244;-72
2023/01/22 09:29:14;;;;;;;8.17;5.50;;;2.50;99.90;;;;;;5042132;28;20703;-73
2023/01/22 09:31:40;;;;;;;8.30;5.97;;;2.50;99.90;;;;;;5044490;28;20588;-75
2023/01/22 09:34:06;;;;;;;9.97;6.40;;;2.50;99.90;;;;;;5046393;28;20643;-73
2023/01/22 09:36:31;;;;;;;9.27;6.73;;;2.60;99.90;;;;;;5038846;28;20244;-75
2023/01/22 09:38:57;;;;;;;11.27;6.03;;;2.60;99.90;;;;;;5044223;28;20651;-73
2023/01/22 09:41:35;;;;;;;12.40;6.77;;;2.60;99.90;;;;;;5043356;28;20193;-75
2023/01/22 09:44:12;;;;;;;11.00;6.57;;;2.60;99.90;;;;;;5040551;28;20245;-73
2023/01/22 09:46:53;;;;;;;8.63;6.27;;;2.60;99.90;;;;;;5045519;28;20635;-75
2023/01/22 09:49:27;;;;;;;8.30;6.10;;;2.60;99.90;;;;;;5039971;28;20268;-75
2023/01/22 09:51:57;;;;;;;9.77;6.17;;;2.60;99.90;;;;;;5047129;28;20208;-74
2023/01/22 09:54:24;;;;;;;9.33;6.60;;;2.50;99.90;;;;;;5041648;28;20220;-75
2023/01/22 09:56:52;;;;;;;10.17;6.40;;;2.60;99.90;;;;;;5041434;28;20341;-74
2023/01/22 09:59:42;;;;;;;10.13;6.30;;;2.60;99.90;;;;;;5045806;28;20202;-75
2023/01/22 10:02:25;;;;;;;9.70;6.00;;;2.70;99.90;;;;;;5042638;28;20210;-74
2023/01/22 10:05:16;;;;;;;9.23;6.03;;;2.70;99.90;;;;;;5045167;28;20212;-74
2023/01/22 10:08:05;;;;;;;10.33;6.50;;;2.60;99.90;;;;;;5041969;28;20211;-72
2023/01/22 10:10:32;;;;;;;9.93;6.13;;;2.60;99.90;;;;;;5041404;28;20221;-74
2023/01/22 10:13:19;;;;;;;10.67;7.13;;;2.60;99.90;;;;;;5044570;28;20261;-74
2023/01/22 10:15:45;;;;;;;10.97;6.93;;;2.60;99.90;;;;;;5022721;28;20709;-74
2023/01/22 10:18:40;;;;;;;11.43;6.77;;;2.60;99.90;;;;;;5047829;28;20188;-74
2023/01/22 10:21:24;;;;;;;12.83;6.73;;;2.60;99.90;;;;;;5040408;28;20210;-73
2023/01/22 10:23:50;;;;;;;11.40;6.63;;;2.60;99.90;;;;;;5047269;28;20182;-73
2023/01/22 10:26:23;;;;;;;10.57;7.33;;;2.70;99.90;;;;;;5043211;28;20298;-73
2023/01/22 10:28:53;;;;;;;10.03;6.93;;;2.60;99.90;;;;;;5040003;28;20212;-72
2023/01/22 10:31:27;;;;;;;11.07;7.13;;;2.60;99.90;;;;;;5045648;28;20222;-74
2023/01/22 10:33:58;;;;;;;10.70;7.30;;;2.70;99.90;;;;;;5032679;28;20217;-73
2023/01/22 10:36:24;;;;;;;10.93;8.00;;;2.70;99.90;;;;;;5046035;28;20288;-73
2023/01/22 10:38:49;;;;;;;11.47;7.33;;;2.70;99.90;;;;;;5050277;28;20204;-72
2023/01/22 10:41:20;;;;;;;10.73;6.73;;;2.80;99.90;;;;;;5047882;28;20210;-74
2023/01/22 10:43:47;;;;;;;10.17;6.97;;;2.80;99.90;;;;;;5046710;28;20261;-73
2023/01/22 10:46:22;;;;;;;11.30;7.17;;;2.70;99.90;;;;;;5065825;28;20575;-74
2023/01/22 10:49:02;;;;;;;10.43;6.90;;;2.70;99.90;;;;;;5046850;28;20244;-74
2023/01/22 10:51:38;;;;;;;11.40;7.20;;;2.70;99.90;;;;;;5047045;28;20293;-73
2023/01/22 10:54:17;;;;;;;10.73;7.47;;;2.80;99.90;;;;;;5045540;28;20179;-74
2023/01/22 10:56:43;;;;;;;12.37;7.70;;;2.80;99.90;;;;;;5040287;28;20198;-73
2023/01/22 10:59:25;;;;;;;11.73;7.00;;;2.80;99.90;;;;;;5050377;28;20212;-74
2023/01/22 11:01:57;;;;;;;10.93;7.93;;;2.80;99.90;;;;;;5047037;28;20619;-72
2023/01/22 11:04:26;;;;;;;14.53;8.93;;;2.80;99.90;;;;;;5052949;28;20716;-74
2023/01/22 11:07:07;;;;;;;19.17;11.67;;;2.80;99.90;;;;;;5046057;28;20244;-73
2023/01/22 11:09:41;;;;;;;13.97;8.77;;;2.90;99.90;;;;;;5049174;28;20230;-74
2023/01/22 11:12:11;;;;;;;9.73;6.93;;;3.00;99.90;;;;;;5045077;28;20186;-74
2023/01/22 11:14:38;;;;;;;10.33;7.13;;;2.90;99.90;;;;;;5050387;28;20604;-75
2023/01/22 11:17:23;;;;;;;10.47;7.73;;;3.00;99.90;;;;;;5047629;28;20212;-75
2023/01/22 11:20:04;;;;;;;10.50;7.30;;;3.00;99.90;;;;;;5050147;28;20599;-73
2023/01/22 11:22:36;;;;;;;11.40;7.53;;;3.00;99.90;;;;;;5043525;28;20371;-74
2023/01/22 11:25:02;;;;;;;11.33;7.80;;;3.00;99.90;;;;;;5043392;28;20211;-75
2023/01/22 11:27:55;;;;;;;10.93;7.50;;;3.00;99.90;;;;;;5045264;28;20305;-75
2023/01/22 11:30:29;;;;;;;10.10;6.50;;;3.00;99.90;;;;;;5044542;28;20207;-75
2023/01/22 11:33:14;;;;;;;10.60;6.67;;;3.00;99.90;;;;;;5046323;28;20176;-75
2023/01/22 11:35:50;;;;;;;11.03;7.40;;;2.90;99.90;;;;;;5046403;28;20204;-73
2023/01/22 11:38:24;;;;;;;10.90;7.40;;;3.00;99.90;;;;;;5050285;28;20226;-75
2023/01/22 11:40:53;;;;;;;10.90;7.43;;;3.00;99.90;;;;;;5045220;28;20305;-73
2023/01/22 11:43:54;;;;;;;10.57;7.47;;;3.00;99.90;;;;;;5043922;28;20629;-75
2023/01/22 11:46:33;;;;;;;11.27;7.63;;;3.00;99.90;;;;;;5044978;28;20226;-75
2023/01/22 11:49:06;;;;;;;13.80;7.90;;;3.00;99.90;;;;;;5041495;28;20773;-75
2023/01/22 11:51:58;;;;;;;10.50;7.27;;;3.00;99.90;;;;;;5045240;28;20222;-75
2023/01/22 11:54:51;;;;;;;11.50;7.80;;;2.90;99.90;;;;;;5041898;28;20698;-75
2023/01/22 11:57:23;;;;;;;10.23;7.03;;;3.00;99.90;;;;;;5045639;28;20586;-75
2023/01/22 12:00:02;;;;;;;10.63;7.33;;;3.10;99.90;;;;;;5046672;28;20679;-73
2023/01/22 12:02:36;;;;;;;11.33;7.90;;;3.00;99.90;;;;;;5040759;28;20211;-74
2023/01/22 12:05:31;;;;;;;12.20;8.10;;;3.00;99.90;;;;;;5048473;28;20744;-75
2023/01/22 12:08:38;;;;;;;10.93;7.47;;;3.00;99.90;;;;;;5028419;28;20213;-74
2023/01/22 12:11:12;;;;;;;10.70;7.77;;;3.00;99.90;;;;;;5046183;28;20252;-74
2023/01/22 12:13:57;;;;;;;12.53;7.63;;;3.00;99.90;;;;;;5043871;28;20594;-74
2023/01/22 12:16:47;;;;;;;10.90;7.50;;;3.10;99.90;;;;;;5042146;28;20220;-73
2023/01/22 12:19:45;;;;;;;9.77;7.13;;;3.10;99.90;;;;;;5043637;28;20694;-75
2023/01/22 12:22:27;;;;;;;11.07;7.43;;;3.00;99.90;;;;;;4985571;28;20239;-74
2023/01/22 12:24:52;;;;;;;12.60;7.57;;;2.90;99.90;;;;;;5036535;28;20207;-74
2023/01/22 12:27:35;;;;;;;12.37;7.97;;;2.90;99.90;;;;;;5045533;28;20823;-74
2023/01/22 12:30:05;;;;;;;12.97;7.97;;;2.90;99.90;;;;;;5042044;28;20175;-74
2023/01/22 12:32:34;;;;;;;11.73;7.77;;;2.80;99.90;;;;;;5044528;28;20199;-74
2023/01/22 12:35:18;;;;;;;13.73;8.53;;;2.80;99.90;;;;;;5043023;28;20455;-74
2023/01/22 12:37:46;;;;;;;15.77;9.23;;;2.80;99.90;;;;;;5042462;28;20224;-72
2023/01/22 12:40:53;;;;;;;13.87;8.90;;;2.90;99.90;;;;;;5047126;28;20258;-74
2023/01/22 12:43:27;;;;;;;14.77;9.00;;;2.90;99.90;;;;;;5009171;28;20217;-75
2023/01/22 12:46:01;;;;;;;14.87;9.47;;;3.00;99.90;;;;;;5046701;28;20420;-75
2023/01/22 12:48:55;;;;;;;13.80;8.90;;;3.00;99.90;;;;;;5040126;28;20225;-73
2023/01/22 12:51:41;;;;;;;13.50;8.57;;;2.90;99.90;;;;;;5049621;28;20208;-74
2023/01/22 12:54:24;;;;;;;14.93;9.63;;;2.90;99.90;;;;;;5042098;28;20230;-73
2023/01/22 12:56:55;;;;;;;13.73;9.03;;;2.80;99.90;;;;;;5040761;28;20207;-73
2023/01/22 12:59:44;;;;;;;16.73;9.57;;;2.80;99.90;;;;;;5046453;28;20731;-74
2023/01/22 13:02:36;;;;;;;16.40;9.93;;;2.80;99.90;;;;;;5041647;28;20576;-74
2023/01/22 13:05:16;;;;;;;12.43;8.90;;;2.80;99.90;;;;;;5046830;28;20228;-74
2023/01/22 13:07:42;;;;;;;12.80;8.03;;;2.70;99.90;;;;;;5041607;28;20219;-74
2023/01/22 13:10:29;;;;;;;13.50;8.77;;;2.70;99.90;;;;;;5041373;28;20204;-74
2023/01/22 13:13:29;;;;;;;14.10;9.23;;;2.70;99.90;;;;;;5044868;28;20216;-74
2023/01/22 13:16:36;;;;;;;14.63;9.20;;;2.70;99.90;;;;;;5035997;28;20213;-74
2023/01/22 13:19:23;;;;;;;16.07;9.97;;;2.60;99.90;;;;;;5047565;28;20244;-74